Time,TemperatureF,DewpointF,PressureIn,WindDirection,WindDirectionDegrees,WindSpeedMPH,WindSpeedGustMPH,Humidity,HourlyPrecipIn,Conditions,Clouds,dailyrainin,SoftwareType,DateUTC
2013-06-26 08:16:00,76.7,70.0,29.83,West,272,0.0,-999.0,79,-99.99,,,0.00,weatherlink.com 1.10,2013-06-26 12:16:00,
2013-06-26 08:25:00,77.1,70.0,29.83,NW,317,0.0,-999.0,78,-99.99,,,0.00,weatherlink.com 1.10,2013-06-26 12:25:00,
2013-06-26 08:40:00,77.7,70.0,29.83,NNW,340,0.0,-999.0,76,-99.99,,,0.00,weatherlink.com 1.10,2013-06-26 12:40:00,
2013-06-26 08:55:00,78.2,70.0,29.83,NW,325,0.0,-999.0,76,-99.99,,,0.00,weatherlink.com 1.10,2013-06-26 12:55:00,
2013-06-26 09:10:00,79.4,70.0,29.82,NNW,334,0.0,-999.0,74,-99.99,,,0.00,weatherlink.com 1.10,2013-06-26 13:10:00,
2013-06-26 09:26:00,80.2,70.0,29.81,NNW,347,0.0,-999.0,71,-99.99,,,0.00,weatherlink.com 1.10,2013-06-26 13:26:00,
2013-06-26 09:41:00,79.4,70.0,29.83,West,270,1.0,-999.0,73,-99.99,,,0.00,weatherlink.com 1.10,2013-06-26 13:41:00,
2013-06-26 09:56:00,78.3,69.0,29.83,WNW,290,0.0,-999.0,74,-99.99,,,0.00,weatherlink.com 1.10,2013-06-26 13:56:00,
2013-06-26 10:11:00,77.4,70.0,29.82,WNW,290,0.0,-999.0,77,-99.99,,,0.00,weatherlink.com 1.10,2013-06-26 14:11:00,
2013-06-26 10:26:00,77.7,70.0,29.81,WNW,290,0.0,-999.0,77,-99.99,,,0.00,weatherlink.com 1.10,2013-06-26 14:26:00,
2013-06-26 10:41:00,78.9,70.0,29.82,WNW,300,0.0,-999.0,75,-99.99,,,0.00,weatherlink.com 1.10,2013-06-26 14:41:00,
2013-06-26 10:56:00,78.6,70.0,29.82,WNW,284,0.0,-999.0,75,-99.99,,,0.00,weatherlink.com 1.10,2013-06-26 14:56:00,
2013-06-26 11:11:00,78.2,70.0,29.82,WNW,295,0.0,-999.0,77,-99.99,,,0.00,weatherlink.com 1.10,2013-06-26 15:11:00,
2013-06-26 11:26:00,77.8,70.0,29.83,WNW,295,0.0,-999.0,78,-99.99,,,0.00,weatherlink.com 1.10,2013-06-26 15:26:00,
2013-06-26 11:41:00,77.7,71.0,29.82,WNW,295,0.0,-999.0,80,-99.99,,,0.00,weatherlink.com 1.10,2013-06-26 15:41:00,
2013-06-26 11:56:00,77.1,71.0,29.82,WNW,295,0.0,-999.0,82,-99.99,,,0.00,weatherlink.com 1.10,2013-06-26 15:56:00,
2013-06-26 12:11:00,76.9,71.0,29.83,WNW,295,0.0,-999.0,81,-99.99,,,0.00,weatherlink.com 1.10,2013-06-26 16:11:00,
2013-06-26 12:27:00,77.2,71.0,29.83,WNW,295,0.0,-999.0,82,-99.99,,,0.00,weatherlink.com 1.10,2013-06-26 16:27:00,
2013-06-26 12:42:00,77.2,72.0,29.83,WNW,295,0.0,-999.0,83,-99.99,,,0.00,weatherlink.com 1.10,2013-06-26 16:42:00,
2013-06-26 12:57:00,77.0,72.0,29.83,WNW,295,0.0,-999.0,83,-99.99,,,0.00,weatherlink.com 1.10,2013-06-26 16:57:00,
2013-06-26 13:12:00,76.3,72.0,29.83,WNW,295,0.0,-999.0,85,-99.99,,,0.00,weatherlink.com 1.10,2013-06-26 17:12:00,
2013-06-26 13:27:00,76.2,72.0,29.83,WNW,295,0.0,-999.0,86,-99.99,,,0.00,weatherlink.com 1.10,2013-06-26 17:27:00,
2013-06-26 13:42:00,76.5,72.0,29.84,WNW,295,0.0,-999.0,86,-99.99,,,0.00,weatherlink.com 1.10,2013-06-26 17:42:00,
2013-06-26 13:57:00,76.4,72.0,29.82,WNW,295,0.0,-999.0,87,-99.99,,,0.00,weatherlink.com 1.10,2013-06-26 17:57:00,
2013-06-26 14:12:00,77.1,72.0,29.83,WNW,295,0.0,-999.0,84,-99.99,,,0.00,weatherlink.com 1.10,2013-06-26 18:12:00,
2013-06-26 14:27:00,78.4,73.0,29.83,WNW,295,0.0,-999.0,82,-99.99,,,0.00,weatherlink.com 1.10,2013-06-26 18:27:00,
2013-06-26 14:42:00,79.3,72.0,29.82,WNW,295,0.0,-999.0,79,-99.99,,,0.00,weatherlink.com 1.10,2013-06-26 18:42:00,
2013-06-26 14:57:00,79.8,73.0,29.82,WNW,295,0.0,-999.0,79,-99.99,,,0.00,weatherlink.com 1.10,2013-06-26 18:57:00,
2013-06-26 15:12:00,80.3,73.0,29.82,WNW,295,0.0,-999.0,78,-99.99,,,0.00,weatherlink.com 1.10,2013-06-26 19:12:00,
2013-06-26 15:27:00,80.4,73.0,29.81,WNW,295,0.0,-999.0,78,-99.99,,,0.00,weatherlink.com 1.10,2013-06-26 19:27:00,
2013-06-26 15:42:00,80.4,72.0,29.82,WNW,295,0.0,-999.0,75,-99.99,,,0.00,weatherlink.com 1.10,2013-06-26 19:42:00,
2013-06-26 15:58:00,80.3,73.0,29.81,WNW,296,0.0,-999.0,77,-99.99,,,0.00,weatherlink.com 1.10,2013-06-26 19:58:00,
2013-06-26 16:13:00,80.3,72.0,29.81,WNW,295,0.0,-999.0,76,-99.99,,,0.00,weatherlink.com 1.10,2013-06-26 20:13:00,
2013-06-26 16:28:00,80.2,72.0,29.80,WNW,295,0.0,-999.0,77,-99.99,,,0.00,weatherlink.com 1.10,2013-06-26 20:28:00,
2013-06-26 16:43:00,79.7,73.0,29.80,WNW,296,0.0,-999.0,80,-99.99,,,0.00,weatherlink.com 1.10,2013-06-26 20:43:00,
2013-06-26 16:58:00,79.4,73.0,29.80,WNW,296,0.0,-999.0,80,-99.99,,,0.00,weatherlink.com 1.10,2013-06-26 20:58:00,
2013-06-26 17:13:00,79.8,73.0,29.80,WNW,296,0.0,-999.0,80,-99.99,,,0.00,weatherlink.com 1.10,2013-06-26 21:13:00,
2013-06-26 17:28:00,79.8,73.0,29.80,WNW,296,0.0,-999.0,80,-99.99,,,0.00,weatherlink.com 1.10,2013-06-26 21:28:00,
2013-06-26 17:43:00,78.9,73.0,29.80,WNW,296,0.0,-999.0,81,-99.99,,,0.00,weatherlink.com 1.10,2013-06-26 21:43:00,
2013-06-26 17:58:00,78.1,72.0,29.80,WNW,296,0.0,-999.0,82,-99.99,,,0.00,weatherlink.com 1.10,2013-06-26 21:58:00,
2013-06-26 18:13:00,77.6,73.0,29.80,WNW,296,0.0,-999.0,84,-99.99,,,0.00,weatherlink.com 1.10,2013-06-26 22:13:00,
2013-06-26 18:28:00,77.4,72.0,29.80,WNW,295,0.0,-999.0,84,-99.99,,,0.00,weatherlink.com 1.10,2013-06-26 22:28:00,
2013-06-26 18:43:00,77.3,73.0,29.80,WNW,296,0.0,-999.0,86,-99.99,,,0.00,weatherlink.com 1.10,2013-06-26 22:43:00,
2013-06-26 18:58:00,76.8,73.0,29.81,WNW,296,0.0,-999.0,88,-99.99,,,0.00,weatherlink.com 1.10,2013-06-26 22:58:00,
2013-06-26 19:14:00,76.0,73.0,29.82,WNW,296,0.0,-999.0,91,-99.99,,,0.00,weatherlink.com 1.10,2013-06-26 23:14:00,
2013-06-26 19:29:00,75.1,73.0,29.81,WNW,296,0.0,-999.0,92,-99.99,,,0.01,weatherlink.com 1.10,2013-06-26 23:29:00,
2013-06-26 19:44:00,74.4,72.0,29.81,WNW,295,0.0,-999.0,93,-99.99,,,0.01,weatherlink.com 1.10,2013-06-26 23:44:00,
2013-06-26 19:59:00,74.0,72.0,29.81,WNW,295,0.0,-999.0,94,-99.99,,,0.01,weatherlink.com 1.10,2013-06-26 23:59:00,
2013-06-26 20:14:00,73.7,72.0,29.80,WNW,295,0.0,-999.0,94,-99.99,,,0.02,weatherlink.com 1.10,2013-06-27 00:14:00,
2013-06-26 20:29:00,73.4,72.0,29.81,WNW,295,0.0,-999.0,95,-99.99,,,0.03,weatherlink.com 1.10,2013-06-27 00:29:00,
2013-06-26 20:44:00,73.2,72.0,29.80,WNW,295,0.0,-999.0,95,-99.99,,,0.03,weatherlink.com 1.10,2013-06-27 00:44:00,
2013-06-26 20:59:00,72.9,71.0,29.80,WNW,295,0.0,-999.0,95,-99.99,,,0.04,weatherlink.com 1.10,2013-06-27 00:59:00,
2013-06-26 21:14:00,72.6,71.0,29.81,WNW,295,0.0,-999.0,96,-99.99,,,0.05,weatherlink.com 1.10,2013-06-27 01:14:00,
2013-06-26 21:29:00,72.3,71.0,29.81,WNW,295,0.0,-999.0,96,-99.99,,,0.06,weatherlink.com 1.10,2013-06-27 01:29:00,
2013-06-26 21:44:00,72.1,71.0,29.81,WNW,295,0.0,-999.0,96,-99.99,,,0.06,weatherlink.com 1.10,2013-06-27 01:44:00,
2013-06-26 21:59:00,71.9,71.0,29.82,WNW,296,0.0,-999.0,96,-99.99,,,0.07,weatherlink.com 1.10,2013-06-27 01:59:00,